DLH891 EVRA-EDDF
Flight info
| Callsign | DLH891 |
|---|---|
| Flight time | 2h 15m |
| Altitude | 36000 |
| Route | VALED M869 LEP M864 ADAXA DCT NINTA DCT DIPEB DCT GOSOT DCT BANUB DCT POVEL DCT RIMET/N0437F350 T157 KOKEB/N0371F230 T157 KERAX KERAX5A |
| Aircraft | A321/M-SDE2E3FGIJ1LORWXYZ/HB1 |
Departure
| Time | 2026-05-06 14:14 |
|---|---|
| Airport | Riga International Airport (EVRA) |
Arrival
| Time | 2026-05-06 16:29 |
|---|---|
| Airport | Frankfurt Main Airport (EDDF) |
| Time | Latitude | Longitude | Altitude | Speed | Heading |
|---|---|---|---|---|---|
| 2026-05-06 13:52 | 56.92288 | 23.97820 | 45 ft | 0 kts | 186° |
| 2026-05-06 14:05 | 56.92304 | 23.97823 | 42 ft | 2 kts | 187° |
| 2026-05-06 14:05 | 56.92321 | 23.97826 | 40 ft | 2 kts | 189° |
| 2026-05-06 14:06 | 56.92337 | 23.97832 | 40 ft | 2 kts | 215° |
| 2026-05-06 14:06 | 56.92343 | 23.97848 | 42 ft | 0 kts | 278° |
| 2026-05-06 14:06 | 56.92343 | 23.97849 | 42 ft | 0 kts | 278° |
| 2026-05-06 14:09 | 56.92344 | 23.97836 | 44 ft | 2 kts | 276° |
| 2026-05-06 14:09 | 56.92345 | 23.97785 | 44 ft | 10 kts | 274° |
| 2026-05-06 14:09 | 56.92354 | 23.97601 | 42 ft | 15 kts | 275° |
| 2026-05-06 14:09 | 56.92294 | 23.97488 | 44 ft | 15 kts | 184° |
| 2026-05-06 14:10 | 56.92187 | 23.97471 | 44 ft | 16 kts | 185° |
| 2026-05-06 14:10 | 56.92071 | 23.97452 | 44 ft | 17 kts | 185° |
| 2026-05-06 14:10 | 56.91947 | 23.97437 | 44 ft | 18 kts | 180° |
| 2026-05-06 14:10 | 56.91815 | 23.97420 | 44 ft | 20 kts | 187° |
| 2026-05-06 14:11 | 56.91676 | 23.97397 | 44 ft | 21 kts | 185° |
| 2026-05-06 14:11 | 56.91527 | 23.97373 | 44 ft | 22 kts | 185° |
| 2026-05-06 14:11 | 56.91372 | 23.97346 | 44 ft | 23 kts | 186° |
| 2026-05-06 14:11 | 56.91208 | 23.97320 | 44 ft | 24 kts | 185° |
| 2026-05-06 14:12 | 56.91037 | 23.97291 | 44 ft | 24 kts | 187° |
| 2026-05-06 14:12 | 56.90902 | 23.97181 | 44 ft | 22 kts | 195° |
| 2026-05-06 14:12 | 56.90751 | 23.97150 | 44 ft | 16 kts | 185° |
| 2026-05-06 14:12 | 56.90675 | 23.97102 | 42 ft | 12 kts | 221° |
| 2026-05-06 14:13 | 56.90650 | 23.96949 | 43 ft | 14 kts | 275° |
| 2026-05-06 14:13 | 56.90679 | 23.96838 | 43 ft | 9 kts | 338° |
| 2026-05-06 14:13 | 56.90751 | 23.96847 | 42 ft | 12 kts | 6° |
| 2026-05-06 14:13 | 56.90938 | 23.96878 | 42 ft | 59 kts | 5° |
| 2026-05-06 14:14 | 56.91592 | 23.96986 | 46 ft | 128 kts | 5° |
| 2026-05-06 14:14 | 56.92633 | 23.97154 | 306 ft | 158 kts | 6° |
| 2026-05-06 14:14 | 56.93723 | 23.97309 | 1117 ft | 158 kts | 9° |
| 2026-05-06 14:14 | 56.94846 | 23.97481 | 1607 ft | 174 kts | 10° |
| 2026-05-06 14:15 | 56.96143 | 23.97707 | 1953 ft | 193 kts | 9° |
| 2026-05-06 14:15 | 56.97534 | 23.97943 | 2224 ft | 215 kts | 9° |
| 2026-05-06 14:15 | 56.99127 | 23.98212 | 2446 ft | 244 kts | 9° |
| 2026-05-06 14:15 | 57.00861 | 23.98489 | 3093 ft | 255 kts | 9° |
| 2026-05-06 14:16 | 57.02653 | 23.98785 | 3872 ft | 261 kts | 9° |
| 2026-05-06 14:16 | 57.04479 | 23.99083 | 4694 ft | 266 kts | 9° |
| 2026-05-06 14:16 | 57.06336 | 23.98737 | 5422 ft | 278 kts | 339° |
| 2026-05-06 14:16 | 57.07896 | 23.96617 | 5782 ft | 281 kts | 307° |
| 2026-05-06 14:17 | 57.08876 | 23.93549 | 5936 ft | 277 kts | 295° |
| 2026-05-06 14:17 | 57.09625 | 23.90289 | 5965 ft | 278 kts | 291° |
| 2026-05-06 14:17 | 57.10318 | 23.86982 | 5964 ft | 276 kts | 291° |
| 2026-05-06 14:17 | 57.10870 | 23.83575 | 6369 ft | 279 kts | 277° |
| 2026-05-06 14:18 | 57.10920 | 23.80044 | 7342 ft | 274 kts | 264° |
| 2026-05-06 14:18 | 57.10558 | 23.76623 | 8220 ft | 273 kts | 254° |
| 2026-05-06 14:18 | 57.10049 | 23.73261 | 9082 ft | 273 kts | 253° |
| 2026-05-06 14:18 | 57.09538 | 23.69888 | 9876 ft | 275 kts | 253° |
| 2026-05-06 14:19 | 57.08847 | 23.66608 | 10574 ft | 276 kts | 239° |
| 2026-05-06 14:19 | 57.07681 | 23.63817 | 11296 ft | 276 kts | 223° |
| 2026-05-06 14:19 | 57.06174 | 23.61506 | 11670 ft | 293 kts | 218° |
| 2026-05-06 14:19 | 57.04526 | 23.59089 | 11877 ft | 311 kts | 218° |
| 2026-05-06 14:20 | 57.02813 | 23.56591 | 12428 ft | 317 kts | 218° |
| 2026-05-06 14:20 | 57.01080 | 23.54062 | 13099 ft | 319 kts | 218° |
| 2026-05-06 14:20 | 56.99360 | 23.51547 | 13787 ft | 321 kts | 218° |
| 2026-05-06 14:20 | 56.97603 | 23.48998 | 14400 ft | 323 kts | 217° |
| 2026-05-06 14:21 | 56.95821 | 23.46477 | 15014 ft | 325 kts | 217° |
| 2026-05-06 14:21 | 56.94020 | 23.43963 | 15639 ft | 326 kts | 217° |
| 2026-05-06 14:21 | 56.92206 | 23.41438 | 16231 ft | 328 kts | 217° |
| 2026-05-06 14:21 | 56.90383 | 23.38900 | 16852 ft | 330 kts | 217° |
| 2026-05-06 14:22 | 56.88555 | 23.36354 | 17451 ft | 332 kts | 218° |
| 2026-05-06 14:22 | 56.86710 | 23.33784 | 18033 ft | 334 kts | 218° |
| 2026-05-06 14:22 | 56.84856 | 23.31203 | 18553 ft | 336 kts | 218° |
| 2026-05-06 14:22 | 56.82985 | 23.28602 | 19004 ft | 339 kts | 217° |
| 2026-05-06 14:23 | 56.81118 | 23.25942 | 19462 ft | 342 kts | 221° |
| 2026-05-06 14:23 | 56.79511 | 23.22724 | 19934 ft | 346 kts | 233° |
| 2026-05-06 14:23 | 56.78326 | 23.18877 | 20409 ft | 351 kts | 245° |
| 2026-05-06 14:23 | 56.77643 | 23.14572 | 20874 ft | 358 kts | 257° |
| 2026-05-06 14:24 | 56.77256 | 23.10071 | 21321 ft | 360 kts | 257° |
| 2026-05-06 14:24 | 56.76866 | 23.05543 | 21776 ft | 363 kts | 257° |
| 2026-05-06 14:24 | 56.76470 | 23.00986 | 22218 ft | 365 kts | 257° |
| 2026-05-06 14:24 | 56.76069 | 22.96407 | 22687 ft | 367 kts | 257° |
| 2026-05-06 14:25 | 56.75662 | 22.91801 | 23132 ft | 369 kts | 257° |
| 2026-05-06 14:25 | 56.75247 | 22.87172 | 23564 ft | 371 kts | 257° |
| 2026-05-06 14:25 | 56.74831 | 22.82576 | 23924 ft | 374 kts | 257° |
| 2026-05-06 14:25 | 56.74431 | 22.77882 | 24286 ft | 376 kts | 258° |
| 2026-05-06 14:26 | 56.74057 | 22.73152 | 24648 ft | 378 kts | 258° |
| 2026-05-06 14:26 | 56.73696 | 22.68397 | 25037 ft | 380 kts | 258° |
| 2026-05-06 14:26 | 56.73337 | 22.63615 | 25385 ft | 382 kts | 258° |
| 2026-05-06 14:26 | 56.72969 | 22.58803 | 25732 ft | 384 kts | 258° |
| 2026-05-06 14:27 | 56.72591 | 22.53973 | 26077 ft | 387 kts | 258° |
| 2026-05-06 14:27 | 56.72206 | 22.49117 | 26413 ft | 389 kts | 258° |
| 2026-05-06 14:27 | 56.71703 | 22.44280 | 26728 ft | 388 kts | 252° |
| 2026-05-06 14:27 | 56.71011 | 22.39517 | 27060 ft | 390 kts | 252° |
| 2026-05-06 14:28 | 56.70315 | 22.34732 | 27386 ft | 392 kts | 252° |
| 2026-05-06 14:28 | 56.69616 | 22.29916 | 27726 ft | 394 kts | 252° |
| 2026-05-06 14:28 | 56.68915 | 22.25083 | 28046 ft | 397 kts | 252° |
| 2026-05-06 14:28 | 56.68209 | 22.20222 | 28369 ft | 399 kts | 252° |
| 2026-05-06 14:29 | 56.67496 | 22.15327 | 28690 ft | 401 kts | 251° |
| 2026-05-06 14:29 | 56.66773 | 22.10420 | 29006 ft | 403 kts | 251° |
| 2026-05-06 14:29 | 56.66042 | 22.05490 | 29320 ft | 405 kts | 251° |
| 2026-05-06 14:29 | 56.65304 | 22.00531 | 29655 ft | 407 kts | 251° |
| 2026-05-06 14:30 | 56.64562 | 21.95549 | 29965 ft | 409 kts | 251° |
| 2026-05-06 14:30 | 56.63815 | 21.90547 | 30218 ft | 411 kts | 251° |
| 2026-05-06 14:30 | 56.63063 | 21.85531 | 30487 ft | 413 kts | 251° |
| 2026-05-06 14:30 | 56.62306 | 21.80495 | 30748 ft | 414 kts | 251° |
| 2026-05-06 14:31 | 56.61556 | 21.75511 | 31000 ft | 415 kts | 251° |
| 2026-05-06 14:31 | 56.60785 | 21.70384 | 31245 ft | 416 kts | 251° |
| 2026-05-06 14:31 | 56.60032 | 21.65375 | 31473 ft | 417 kts | 251° |
| 2026-05-06 14:31 | 56.59266 | 21.60300 | 31763 ft | 417 kts | 251° |
| 2026-05-06 14:32 | 56.58498 | 21.55224 | 32024 ft | 417 kts | 251° |
| 2026-05-06 14:32 | 56.57728 | 21.50149 | 32282 ft | 417 kts | 251° |
| 2026-05-06 14:32 | 56.56954 | 21.45083 | 32585 ft | 417 kts | 251° |
| 2026-05-06 14:32 | 56.56179 | 21.40022 | 32904 ft | 416 kts | 251° |
| 2026-05-06 14:33 | 56.55405 | 21.34989 | 33231 ft | 414 kts | 250° |
| 2026-05-06 14:33 | 56.54629 | 21.29967 | 33559 ft | 413 kts | 250° |
| 2026-05-06 14:33 | 56.53851 | 21.24957 | 33847 ft | 413 kts | 250° |
| 2026-05-06 14:33 | 56.53067 | 21.19940 | 34085 ft | 414 kts | 250° |
| 2026-05-06 14:34 | 56.52282 | 21.14929 | 34316 ft | 413 kts | 250° |
| 2026-05-06 14:34 | 56.51500 | 21.09922 | 34555 ft | 413 kts | 251° |
| 2026-05-06 14:34 | 56.50945 | 21.04799 | 34778 ft | 416 kts | 257° |
| 2026-05-06 14:34 | 56.50506 | 20.99644 | 35011 ft | 415 kts | 257° |
| 2026-05-06 14:35 | 56.50066 | 20.94477 | 35252 ft | 415 kts | 257° |
| 2026-05-06 14:35 | 56.49623 | 20.89315 | 35488 ft | 414 kts | 257° |
| 2026-05-06 14:35 | 56.49179 | 20.84166 | 35724 ft | 414 kts | 257° |
| 2026-05-06 14:35 | 56.48730 | 20.79025 | 35895 ft | 414 kts | 257° |
| 2026-05-06 14:36 | 56.47825 | 20.68830 | 35934 ft | 408 kts | 257° |
| 2026-05-06 14:36 | 56.46918 | 20.58710 | 35925 ft | 410 kts | 257° |
| 2026-05-06 14:37 | 56.45999 | 20.48498 | 35924 ft | 412 kts | 257° |
| 2026-05-06 14:37 | 56.45069 | 20.38254 | 35918 ft | 413 kts | 257° |
| 2026-05-06 14:38 | 56.44138 | 20.28084 | 35922 ft | 413 kts | 257° |
| 2026-05-06 14:38 | 56.43180 | 20.17848 | 35936 ft | 413 kts | 256° |
| 2026-05-06 14:39 | 56.42170 | 20.07636 | 35941 ft | 413 kts | 256° |
| 2026-05-06 14:39 | 56.41132 | 19.97427 | 35941 ft | 413 kts | 256° |
| 2026-05-06 14:40 | 56.40093 | 19.87217 | 35948 ft | 414 kts | 256° |
| 2026-05-06 14:40 | 56.39219 | 19.78711 | 35945 ft | 415 kts | 256° |
| 2026-05-06 14:41 | 56.38166 | 19.68460 | 35947 ft | 416 kts | 256° |
| 2026-05-06 14:41 | 56.37108 | 19.58198 | 35942 ft | 416 kts | 256° |
| 2026-05-06 14:42 | 56.36032 | 19.47926 | 35935 ft | 417 kts | 256° |
| 2026-05-06 14:42 | 56.34938 | 19.37645 | 35938 ft | 418 kts | 256° |
| 2026-05-06 14:43 | 56.33846 | 19.27347 | 35966 ft | 418 kts | 255° |
| 2026-05-06 14:43 | 56.32742 | 19.17043 | 35959 ft | 419 kts | 255° |
| 2026-05-06 14:44 | 56.31636 | 19.06806 | 35949 ft | 419 kts | 255° |
| 2026-05-06 14:45 | 56.29942 | 18.91351 | 35951 ft | 419 kts | 255° |
| 2026-05-06 14:45 | 56.28809 | 18.81048 | 35954 ft | 419 kts | 255° |
| 2026-05-06 14:46 | 56.27674 | 18.70738 | 35952 ft | 420 kts | 255° |
| 2026-05-06 14:46 | 56.26526 | 18.60455 | 35975 ft | 419 kts | 255° |
| 2026-05-06 14:47 | 56.25364 | 18.50168 | 35962 ft | 419 kts | 255° |
| 2026-05-06 14:47 | 56.24190 | 18.39887 | 35955 ft | 420 kts | 255° |
| 2026-05-06 14:48 | 56.23006 | 18.29602 | 35950 ft | 420 kts | 255° |
| 2026-05-06 14:48 | 56.21647 | 18.19411 | 35949 ft | 419 kts | 252° |
| 2026-05-06 14:49 | 56.20087 | 18.09403 | 35955 ft | 419 kts | 251° |
| 2026-05-06 14:49 | 56.18364 | 17.99434 | 35954 ft | 416 kts | 244° |
| 2026-05-06 14:50 | 56.15364 | 17.90679 | 35960 ft | 411 kts | 231° |
| 2026-05-06 14:50 | 56.11937 | 17.82452 | 35955 ft | 411 kts | 231° |
| 2026-05-06 14:51 | 56.08510 | 17.74229 | 35946 ft | 412 kts | 232° |
| 2026-05-06 14:51 | 56.05076 | 17.66014 | 35936 ft | 413 kts | 232° |
| 2026-05-06 14:52 | 56.01628 | 17.57801 | 35941 ft | 413 kts | 232° |
| 2026-05-06 14:52 | 55.98169 | 17.49591 | 35939 ft | 414 kts | 231° |
| 2026-05-06 14:53 | 55.94699 | 17.41393 | 35940 ft | 414 kts | 231° |
| 2026-05-06 14:53 | 55.91227 | 17.33205 | 35945 ft | 414 kts | 231° |
| 2026-05-06 14:54 | 55.87747 | 17.25029 | 35940 ft | 414 kts | 231° |
| 2026-05-06 14:54 | 55.84279 | 17.16929 | 35939 ft | 414 kts | 231° |
| 2026-05-06 14:55 | 55.80785 | 17.08770 | 35961 ft | 414 kts | 232° |
| 2026-05-06 14:55 | 55.77293 | 17.00647 | 35963 ft | 413 kts | 232° |
| 2026-05-06 14:56 | 55.73796 | 16.92553 | 35958 ft | 413 kts | 232° |
| 2026-05-06 14:56 | 55.70291 | 16.84472 | 35957 ft | 412 kts | 231° |
| 2026-05-06 14:57 | 55.66793 | 16.76411 | 35938 ft | 412 kts | 232° |
| 2026-05-06 14:57 | 55.63297 | 16.68360 | 35940 ft | 412 kts | 232° |
| 2026-05-06 14:58 | 55.59785 | 16.60334 | 35942 ft | 413 kts | 231° |
| 2026-05-06 14:58 | 55.56265 | 16.52320 | 35942 ft | 413 kts | 231° |
| 2026-05-06 14:59 | 55.52761 | 16.44352 | 35948 ft | 413 kts | 231° |
| 2026-05-06 14:59 | 55.49234 | 16.36362 | 35944 ft | 413 kts | 231° |
| 2026-05-06 15:00 | 55.45699 | 16.28384 | 35940 ft | 413 kts | 231° |
| 2026-05-06 15:00 | 55.42164 | 16.20428 | 35944 ft | 412 kts | 231° |
| 2026-05-06 15:01 | 55.38623 | 16.12489 | 35950 ft | 412 kts | 231° |
| 2026-05-06 15:01 | 55.35078 | 16.04556 | 35943 ft | 412 kts | 231° |
| 2026-05-06 15:02 | 55.31527 | 15.96649 | 35943 ft | 412 kts | 231° |
| 2026-05-06 15:02 | 55.27970 | 15.88758 | 35945 ft | 412 kts | 231° |
| 2026-05-06 15:03 | 55.24411 | 15.80881 | 35935 ft | 412 kts | 231° |
| 2026-05-06 15:03 | 55.20851 | 15.73023 | 35941 ft | 411 kts | 231° |
| 2026-05-06 15:04 | 55.17322 | 15.65248 | 35942 ft | 410 kts | 231° |
| 2026-05-06 15:04 | 55.13769 | 15.57440 | 35942 ft | 410 kts | 231° |
| 2026-05-06 15:05 | 55.10203 | 15.49646 | 35951 ft | 411 kts | 231° |
| 2026-05-06 15:05 | 55.06624 | 15.41864 | 35943 ft | 411 kts | 231° |
| 2026-05-06 15:06 | 55.03038 | 15.34083 | 35937 ft | 412 kts | 231° |
| 2026-05-06 15:06 | 54.99449 | 15.26295 | 35934 ft | 412 kts | 231° |
| 2026-05-06 15:07 | 54.95851 | 15.18518 | 35934 ft | 413 kts | 231° |
| 2026-05-06 15:07 | 54.92238 | 15.10750 | 35930 ft | 413 kts | 231° |
| 2026-05-06 15:08 | 54.88625 | 15.02992 | 35932 ft | 413 kts | 231° |
| 2026-05-06 15:08 | 54.84768 | 14.95634 | 35937 ft | 412 kts | 224° |
| 2026-05-06 15:09 | 54.80627 | 14.88753 | 35933 ft | 412 kts | 224° |
| 2026-05-06 15:09 | 54.76478 | 14.81912 | 35926 ft | 412 kts | 224° |
| 2026-05-06 15:10 | 54.72327 | 14.75057 | 35933 ft | 412 kts | 224° |
| 2026-05-06 15:10 | 54.68169 | 14.68219 | 35933 ft | 413 kts | 223° |
| 2026-05-06 15:11 | 54.64007 | 14.61388 | 35926 ft | 413 kts | 223° |
| 2026-05-06 15:11 | 54.59842 | 14.54571 | 35925 ft | 412 kts | 223° |
| 2026-05-06 15:12 | 54.55702 | 14.47812 | 35919 ft | 413 kts | 224° |
| 2026-05-06 15:12 | 54.51537 | 14.41028 | 35921 ft | 412 kts | 223° |
| 2026-05-06 15:13 | 54.47366 | 14.34253 | 35916 ft | 413 kts | 223° |
| 2026-05-06 15:13 | 54.43186 | 14.27492 | 35917 ft | 412 kts | 223° |
| 2026-05-06 15:14 | 54.39006 | 14.20754 | 35910 ft | 412 kts | 223° |
| 2026-05-06 15:14 | 54.34823 | 14.14037 | 35915 ft | 411 kts | 223° |
| 2026-05-06 15:15 | 54.30644 | 14.07335 | 35909 ft | 411 kts | 223° |
| 2026-05-06 15:15 | 54.26463 | 14.00650 | 35911 ft | 411 kts | 223° |
| 2026-05-06 15:16 | 54.22286 | 13.93996 | 35905 ft | 411 kts | 223° |
| 2026-05-06 15:16 | 54.18103 | 13.87347 | 35916 ft | 411 kts | 223° |
| 2026-05-06 15:17 | 54.13915 | 13.80707 | 35901 ft | 411 kts | 223° |
| 2026-05-06 15:17 | 54.09752 | 13.74125 | 35901 ft | 411 kts | 223° |
| 2026-05-06 15:18 | 54.05553 | 13.67510 | 35898 ft | 411 kts | 223° |
| 2026-05-06 15:18 | 54.01354 | 13.60915 | 35896 ft | 411 kts | 223° |
| 2026-05-06 15:19 | 53.97154 | 13.54330 | 35889 ft | 411 kts | 223° |
| 2026-05-06 15:19 | 53.92950 | 13.47759 | 35895 ft | 411 kts | 223° |
| 2026-05-06 15:20 | 53.88738 | 13.41197 | 35890 ft | 411 kts | 223° |
| 2026-05-06 15:20 | 53.84523 | 13.34654 | 35891 ft | 410 kts | 223° |
| 2026-05-06 15:21 | 53.80343 | 13.28166 | 35890 ft | 410 kts | 223° |
| 2026-05-06 15:21 | 53.76121 | 13.21639 | 35878 ft | 410 kts | 223° |
| 2026-05-06 15:22 | 53.71892 | 13.15141 | 35889 ft | 410 kts | 222° |
| 2026-05-06 15:22 | 53.67678 | 13.08674 | 35903 ft | 410 kts | 222° |
| 2026-05-06 15:23 | 53.63452 | 13.02201 | 35894 ft | 410 kts | 222° |
| 2026-05-06 15:23 | 53.59219 | 12.95740 | 35892 ft | 410 kts | 222° |
| 2026-05-06 15:24 | 53.55014 | 12.89325 | 35888 ft | 411 kts | 222° |
| 2026-05-06 15:24 | 53.50781 | 12.82890 | 35883 ft | 410 kts | 222° |
| 2026-05-06 15:25 | 53.46541 | 12.76483 | 35890 ft | 410 kts | 222° |
| 2026-05-06 15:25 | 53.42300 | 12.70095 | 35889 ft | 409 kts | 222° |
| 2026-05-06 15:26 | 53.38070 | 12.63723 | 35892 ft | 409 kts | 222° |
| 2026-05-06 15:26 | 53.33831 | 12.57353 | 35890 ft | 409 kts | 222° |
| 2026-05-06 15:27 | 53.29595 | 12.51013 | 35880 ft | 408 kts | 222° |
| 2026-05-06 15:27 | 53.25364 | 12.44697 | 35870 ft | 408 kts | 222° |
| 2026-05-06 15:28 | 53.21138 | 12.38399 | 35868 ft | 407 kts | 222° |
| 2026-05-06 15:28 | 53.16914 | 12.32120 | 35887 ft | 407 kts | 221° |
| 2026-05-06 15:29 | 53.12674 | 12.25843 | 35882 ft | 408 kts | 221° |
| 2026-05-06 15:29 | 53.08455 | 12.19616 | 35858 ft | 408 kts | 221° |
| 2026-05-06 15:30 | 53.04210 | 12.13374 | 35857 ft | 407 kts | 221° |
| 2026-05-06 15:30 | 52.99963 | 12.07132 | 35859 ft | 408 kts | 221° |
| 2026-05-06 15:31 | 52.95714 | 12.00899 | 35854 ft | 408 kts | 221° |
| 2026-05-06 15:31 | 52.92178 | 11.95726 | 35855 ft | 408 kts | 221° |
| 2026-05-06 15:32 | 52.85779 | 11.86410 | 35862 ft | 408 kts | 221° |
| 2026-05-06 15:32 | 52.81507 | 11.80214 | 35862 ft | 409 kts | 221° |
| 2026-05-06 15:33 | 52.77232 | 11.74019 | 35856 ft | 408 kts | 221° |
| 2026-05-06 15:33 | 52.72952 | 11.67851 | 35849 ft | 408 kts | 221° |
| 2026-05-06 15:34 | 52.68670 | 11.61686 | 35853 ft | 408 kts | 221° |
| 2026-05-06 15:34 | 52.64389 | 11.55528 | 35849 ft | 409 kts | 221° |
| 2026-05-06 15:35 | 52.60122 | 11.49416 | 35845 ft | 409 kts | 221° |
| 2026-05-06 15:35 | 52.55794 | 11.43237 | 35833 ft | 409 kts | 221° |
| 2026-05-06 15:36 | 52.51490 | 11.37110 | 35839 ft | 410 kts | 221° |
| 2026-05-06 15:36 | 52.47206 | 11.31019 | 35834 ft | 410 kts | 221° |
| 2026-05-06 15:37 | 52.42883 | 11.24903 | 35831 ft | 410 kts | 221° |
| 2026-05-06 15:37 | 52.38566 | 11.18800 | 35831 ft | 410 kts | 221° |
| 2026-05-06 15:38 | 52.34250 | 11.12720 | 35834 ft | 409 kts | 221° |
| 2026-05-06 15:38 | 52.29926 | 11.06639 | 35828 ft | 409 kts | 221° |
| 2026-05-06 15:39 | 52.25613 | 11.00577 | 35831 ft | 409 kts | 221° |
| 2026-05-06 15:39 | 52.21322 | 10.94576 | 35820 ft | 409 kts | 220° |
| 2026-05-06 15:40 | 52.16996 | 10.88563 | 35844 ft | 408 kts | 220° |
| 2026-05-06 15:40 | 52.12573 | 10.82770 | 35829 ft | 409 kts | 212° |
| 2026-05-06 15:41 | 52.07488 | 10.78580 | 35822 ft | 410 kts | 206° |
| 2026-05-06 15:41 | 52.02322 | 10.74582 | 35809 ft | 411 kts | 206° |
| 2026-05-06 15:42 | 51.97154 | 10.70581 | 35807 ft | 411 kts | 206° |
| 2026-05-06 15:42 | 51.91996 | 10.66594 | 35815 ft | 410 kts | 206° |
| 2026-05-06 15:43 | 51.86842 | 10.62614 | 35806 ft | 410 kts | 206° |
| 2026-05-06 15:43 | 51.81695 | 10.58652 | 35804 ft | 410 kts | 206° |
| 2026-05-06 15:44 | 51.76578 | 10.54717 | 35795 ft | 410 kts | 206° |
| 2026-05-06 15:44 | 51.71425 | 10.50756 | 35804 ft | 410 kts | 206° |
| 2026-05-06 15:45 | 51.66284 | 10.46795 | 35801 ft | 410 kts | 206° |
| 2026-05-06 15:45 | 51.61134 | 10.42844 | 35795 ft | 410 kts | 206° |
| 2026-05-06 15:46 | 51.55985 | 10.38905 | 35787 ft | 409 kts | 206° |
| 2026-05-06 15:46 | 51.50834 | 10.34990 | 35779 ft | 410 kts | 206° |
| 2026-05-06 15:47 | 51.45677 | 10.31067 | 35787 ft | 410 kts | 206° |
| 2026-05-06 15:47 | 51.40520 | 10.27146 | 35787 ft | 410 kts | 206° |
| 2026-05-06 15:48 | 51.35355 | 10.23235 | 35785 ft | 410 kts | 206° |
| 2026-05-06 15:48 | 51.30194 | 10.19341 | 35791 ft | 410 kts | 206° |
| 2026-05-06 15:49 | 51.25038 | 10.15460 | 35789 ft | 409 kts | 206° |
| 2026-05-06 15:49 | 51.19922 | 10.11615 | 35794 ft | 409 kts | 206° |
| 2026-05-06 15:50 | 51.14771 | 10.07754 | 35784 ft | 409 kts | 206° |
| 2026-05-06 15:50 | 51.09622 | 10.03903 | 35786 ft | 409 kts | 206° |
| 2026-05-06 15:51 | 51.04473 | 10.00062 | 35786 ft | 408 kts | 206° |
| 2026-05-06 15:51 | 50.99294 | 9.96373 | 35770 ft | 409 kts | 197° |
| 2026-05-06 15:52 | 50.96477 | 9.95655 | 35523 ft | 413 kts | 186° |
| 2026-05-06 15:52 | 50.93607 | 9.95435 | 34908 ft | 414 kts | 184° |
| 2026-05-06 15:52 | 50.90728 | 9.95266 | 34298 ft | 414 kts | 184° |
| 2026-05-06 15:52 | 50.87853 | 9.95106 | 33698 ft | 413 kts | 184° |
| 2026-05-06 15:53 | 50.84984 | 9.94950 | 33004 ft | 412 kts | 184° |
| 2026-05-06 15:53 | 50.82152 | 9.94791 | 32336 ft | 411 kts | 184° |
| 2026-05-06 15:53 | 50.79293 | 9.94623 | 31676 ft | 410 kts | 184° |
| 2026-05-06 15:53 | 50.76407 | 9.94449 | 31025 ft | 409 kts | 184° |
| 2026-05-06 15:54 | 50.73601 | 9.94273 | 30394 ft | 408 kts | 184° |
| 2026-05-06 15:54 | 50.70780 | 9.94091 | 29782 ft | 406 kts | 184° |
| 2026-05-06 15:54 | 50.67960 | 9.93903 | 29061 ft | 405 kts | 184° |
| 2026-05-06 15:54 | 50.65145 | 9.93718 | 28355 ft | 404 kts | 184° |
| 2026-05-06 15:55 | 50.62341 | 9.93527 | 27667 ft | 402 kts | 184° |
| 2026-05-06 15:55 | 50.59547 | 9.93344 | 26998 ft | 400 kts | 184° |
| 2026-05-06 15:55 | 50.56779 | 9.93162 | 26344 ft | 397 kts | 184° |
| 2026-05-06 15:55 | 50.54027 | 9.92986 | 25706 ft | 394 kts | 184° |
| 2026-05-06 15:56 | 50.51291 | 9.92813 | 25083 ft | 392 kts | 184° |
| 2026-05-06 15:56 | 50.48573 | 9.92642 | 24471 ft | 390 kts | 184° |
| 2026-05-06 15:56 | 50.45875 | 9.92474 | 23877 ft | 388 kts | 184° |
| 2026-05-06 15:56 | 50.43187 | 9.92298 | 23279 ft | 386 kts | 184° |
| 2026-05-06 15:57 | 50.40510 | 9.92110 | 22587 ft | 384 kts | 184° |
| 2026-05-06 15:57 | 50.37850 | 9.91922 | 21912 ft | 382 kts | 184° |
| 2026-05-06 15:57 | 50.35233 | 9.91732 | 21254 ft | 381 kts | 184° |
| 2026-05-06 15:57 | 50.32557 | 9.91534 | 20604 ft | 379 kts | 185° |
| 2026-05-06 15:58 | 50.30006 | 9.90845 | 19959 ft | 377 kts | 200° |
| 2026-05-06 15:58 | 50.27697 | 9.88994 | 19349 ft | 373 kts | 217° |
| 2026-05-06 15:58 | 50.25919 | 9.86235 | 18857 ft | 351 kts | 233° |
| 2026-05-06 15:58 | 50.24765 | 9.82957 | 17949 ft | 342 kts | 249° |
| 2026-05-06 15:59 | 50.24287 | 9.79352 | 16838 ft | 338 kts | 265° |
| 2026-05-06 15:59 | 50.24224 | 9.75700 | 15728 ft | 334 kts | 266° |
| 2026-05-06 15:59 | 50.24160 | 9.72107 | 14683 ft | 329 kts | 266° |
| 2026-05-06 15:59 | 50.24084 | 9.68559 | 13666 ft | 324 kts | 266° |
| 2026-05-06 16:00 | 50.24002 | 9.65068 | 12605 ft | 318 kts | 266° |
| 2026-05-06 16:00 | 50.23922 | 9.61686 | 12236 ft | 301 kts | 266° |
| 2026-05-06 16:00 | 50.23851 | 9.58505 | 11990 ft | 288 kts | 266° |
| 2026-05-06 16:00 | 50.23782 | 9.55413 | 11685 ft | 282 kts | 266° |
| 2026-05-06 16:01 | 50.23711 | 9.52381 | 11377 ft | 277 kts | 266° |
| 2026-05-06 16:01 | 50.23638 | 9.49403 | 11067 ft | 272 kts | 266° |
| 2026-05-06 16:01 | 50.23565 | 9.46471 | 10750 ft | 269 kts | 266° |
| 2026-05-06 16:01 | 50.23492 | 9.43567 | 10435 ft | 267 kts | 265° |
| 2026-05-06 16:02 | 50.23202 | 9.40725 | 10127 ft | 264 kts | 252° |
| 2026-05-06 16:02 | 50.22596 | 9.38014 | 9780 ft | 265 kts | 249° |
| 2026-05-06 16:02 | 50.21970 | 9.35315 | 9493 ft | 263 kts | 249° |
| 2026-05-06 16:02 | 50.21356 | 9.32651 | 9248 ft | 259 kts | 249° |
| 2026-05-06 16:03 | 50.20750 | 9.30023 | 8911 ft | 256 kts | 249° |
| 2026-05-06 16:03 | 50.20149 | 9.27419 | 8592 ft | 254 kts | 249° |
| 2026-05-06 16:03 | 50.19558 | 9.24868 | 8266 ft | 253 kts | 249° |
| 2026-05-06 16:03 | 50.18954 | 9.22272 | 7943 ft | 257 kts | 249° |
| 2026-05-06 16:04 | 50.18339 | 9.19616 | 7604 ft | 262 kts | 250° |
| 2026-05-06 16:04 | 50.17722 | 9.16950 | 7265 ft | 260 kts | 249° |
| 2026-05-06 16:04 | 50.17111 | 9.14317 | 7010 ft | 255 kts | 249° |
| 2026-05-06 16:04 | 50.16514 | 9.11783 | 6869 ft | 241 kts | 249° |
| 2026-05-06 16:05 | 50.15954 | 9.09419 | 6748 ft | 223 kts | 249° |
| 2026-05-06 16:05 | 50.15443 | 9.07229 | 6544 ft | 211 kts | 249° |
| 2026-05-06 16:05 | 50.14942 | 9.05078 | 6158 ft | 208 kts | 249° |
| 2026-05-06 16:05 | 50.14461 | 9.03017 | 5985 ft | 195 kts | 249° |
| 2026-05-06 16:06 | 50.14011 | 9.01088 | 5969 ft | 187 kts | 249° |
| 2026-05-06 16:06 | 50.13570 | 8.99200 | 5775 ft | 184 kts | 249° |
| 2026-05-06 16:06 | 50.13134 | 8.97339 | 5555 ft | 181 kts | 249° |
| 2026-05-06 16:06 | 50.12704 | 8.95501 | 5322 ft | 180 kts | 249° |
| 2026-05-06 16:07 | 50.12277 | 8.93676 | 5084 ft | 180 kts | 249° |
| 2026-05-06 16:07 | 50.11848 | 8.91848 | 4849 ft | 179 kts | 248° |
| 2026-05-06 16:07 | 50.11422 | 8.90033 | 4608 ft | 178 kts | 248° |
| 2026-05-06 16:07 | 50.10998 | 8.88226 | 4372 ft | 177 kts | 249° |
| 2026-05-06 16:08 | 50.10572 | 8.86414 | 4126 ft | 178 kts | 249° |
| 2026-05-06 16:08 | 50.10145 | 8.84600 | 3887 ft | 178 kts | 249° |
| 2026-05-06 16:08 | 50.09719 | 8.82790 | 3642 ft | 177 kts | 250° |
| 2026-05-06 16:08 | 50.09299 | 8.81009 | 3427 ft | 173 kts | 250° |
| 2026-05-06 16:09 | 50.08886 | 8.79255 | 3193 ft | 173 kts | 251° |
| 2026-05-06 16:09 | 50.08466 | 8.77474 | 2956 ft | 176 kts | 250° |
| 2026-05-06 16:09 | 50.08045 | 8.75693 | 2722 ft | 177 kts | 251° |
| 2026-05-06 16:09 | 50.07620 | 8.73895 | 2482 ft | 174 kts | 251° |
| 2026-05-06 16:10 | 50.07223 | 8.72221 | 2254 ft | 156 kts | 253° |
| 2026-05-06 16:10 | 50.06864 | 8.70706 | 2044 ft | 143 kts | 251° |
| 2026-05-06 16:10 | 50.06525 | 8.69277 | 1853 ft | 138 kts | 251° |
| 2026-05-06 16:10 | 50.06201 | 8.67910 | 1690 ft | 132 kts | 253° |
| 2026-05-06 16:11 | 50.05884 | 8.66568 | 1512 ft | 132 kts | 252° |
| 2026-05-06 16:11 | 50.05563 | 8.65218 | 1321 ft | 132 kts | 251° |
| 2026-05-06 16:11 | 50.05246 | 8.63880 | 1130 ft | 132 kts | 253° |
| 2026-05-06 16:11 | 50.04926 | 8.62539 | 951 ft | 134 kts | 251° |
| 2026-05-06 16:12 | 50.04614 | 8.61201 | 776 ft | 133 kts | 254° |
| 2026-05-06 16:12 | 50.04294 | 8.59866 | 595 ft | 132 kts | 252° |
| 2026-05-06 16:12 | 50.03973 | 8.58531 | 410 ft | 131 kts | 253° |
| 2026-05-06 16:12 | 50.03661 | 8.57234 | 478 ft | 140 kts | 252° |
| 2026-05-06 16:13 | 50.03255 | 8.55661 | 1070 ft | 167 kts | 250° |
| 2026-05-06 16:13 | 50.02831 | 8.53951 | 2010 ft | 172 kts | 253° |
| 2026-05-06 16:13 | 50.02436 | 8.52193 | 2808 ft | 169 kts | 251° |
| 2026-05-06 16:13 | 50.02044 | 8.50447 | 3270 ft | 180 kts | 250° |
| 2026-05-06 16:14 | 50.01569 | 8.48524 | 3601 ft | 200 kts | 242° |
| 2026-05-06 16:14 | 50.00543 | 8.47025 | 4119 ft | 211 kts | 207° |
| 2026-05-06 16:14 | 49.99067 | 8.46728 | 4745 ft | 223 kts | 174° |
| 2026-05-06 16:14 | 49.97646 | 8.47729 | 4962 ft | 230 kts | 142° |
| 2026-05-06 16:15 | 49.96766 | 8.49795 | 5010 ft | 236 kts | 110° |
| 2026-05-06 16:15 | 49.96538 | 8.52333 | 5005 ft | 238 kts | 95° |
| 2026-05-06 16:15 | 49.96461 | 8.54900 | 5006 ft | 238 kts | 94° |
| 2026-05-06 16:15 | 49.96402 | 8.57470 | 5008 ft | 238 kts | 94° |
| 2026-05-06 16:16 | 49.96346 | 8.60039 | 5005 ft | 238 kts | 93° |
| 2026-05-06 16:16 | 49.96605 | 8.62575 | 5008 ft | 240 kts | 72° |
| 2026-05-06 16:16 | 49.97182 | 8.65015 | 5008 ft | 241 kts | 69° |
| 2026-05-06 16:16 | 49.97795 | 8.67433 | 5005 ft | 241 kts | 69° |
| 2026-05-06 16:17 | 49.98415 | 8.69848 | 5006 ft | 241 kts | 69° |
| 2026-05-06 16:17 | 49.99035 | 8.72264 | 5005 ft | 240 kts | 69° |
| 2026-05-06 16:17 | 49.99651 | 8.74677 | 5006 ft | 241 kts | 69° |
| 2026-05-06 16:17 | 50.00270 | 8.77095 | 5005 ft | 240 kts | 69° |
| 2026-05-06 16:18 | 50.00886 | 8.79507 | 4982 ft | 239 kts | 69° |
| 2026-05-06 16:18 | 50.01495 | 8.81887 | 4624 ft | 237 kts | 69° |
| 2026-05-06 16:18 | 50.01902 | 8.83469 | 4340 ft | 237 kts | 69° |
| 2026-05-06 16:18 | 50.02509 | 8.85840 | 4019 ft | 235 kts | 69° |
| 2026-05-06 16:19 | 50.03112 | 8.88212 | 3998 ft | 236 kts | 69° |
| 2026-05-06 16:19 | 50.03711 | 8.90591 | 3996 ft | 235 kts | 69° |
| 2026-05-06 16:19 | 50.04308 | 8.92966 | 3996 ft | 235 kts | 69° |
| 2026-05-06 16:19 | 50.04908 | 8.95338 | 3997 ft | 236 kts | 69° |
| 2026-05-06 16:20 | 50.05507 | 8.97716 | 3993 ft | 236 kts | 69° |
| 2026-05-06 16:20 | 50.06103 | 9.00093 | 3992 ft | 236 kts | 69° |
| 2026-05-06 16:20 | 50.06717 | 9.02458 | 3990 ft | 236 kts | 64° |
| 2026-05-06 16:20 | 50.07788 | 9.04352 | 3992 ft | 235 kts | 30° |
| 2026-05-06 16:21 | 50.09317 | 9.05051 | 3995 ft | 229 kts | 356° |
| 2026-05-06 16:21 | 50.10820 | 9.04592 | 3987 ft | 212 kts | 334° |
| 2026-05-06 16:21 | 50.12012 | 9.03406 | 3994 ft | 193 kts | 312° |
| 2026-05-06 16:21 | 50.12778 | 9.01886 | 4012 ft | 163 kts | 295° |
| 2026-05-06 16:22 | 50.13159 | 9.00378 | 3989 ft | 139 kts | 279° |
| 2026-05-06 16:22 | 50.13270 | 8.98921 | 3990 ft | 134 kts | 266° |
| 2026-05-06 16:22 | 50.13151 | 8.97481 | 3990 ft | 134 kts | 253° |
| 2026-05-06 16:22 | 50.12845 | 8.96104 | 3995 ft | 135 kts | 249° |
| 2026-05-06 16:23 | 50.12522 | 8.94724 | 3997 ft | 136 kts | 249° |
| 2026-05-06 16:23 | 50.12197 | 8.93338 | 3994 ft | 136 kts | 249° |
| 2026-05-06 16:23 | 50.11873 | 8.91957 | 3997 ft | 136 kts | 249° |
| 2026-05-06 16:23 | 50.11549 | 8.90572 | 3998 ft | 136 kts | 249° |
| 2026-05-06 16:24 | 50.11206 | 8.89113 | 4008 ft | 151 kts | 249° |
| 2026-05-06 16:24 | 50.10837 | 8.87543 | 4004 ft | 155 kts | 249° |
| 2026-05-06 16:24 | 50.10464 | 8.85954 | 3963 ft | 156 kts | 249° |
| 2026-05-06 16:24 | 50.10093 | 8.84379 | 3821 ft | 158 kts | 249° |
| 2026-05-06 16:25 | 50.09716 | 8.82779 | 3631 ft | 157 kts | 250° |
| 2026-05-06 16:25 | 50.09334 | 8.81156 | 3438 ft | 158 kts | 250° |
| 2026-05-06 16:25 | 50.08962 | 8.79579 | 3229 ft | 154 kts | 250° |
| 2026-05-06 16:25 | 50.08588 | 8.77994 | 3018 ft | 157 kts | 249° |
| 2026-05-06 16:26 | 50.08214 | 8.76408 | 2816 ft | 154 kts | 250° |
| 2026-05-06 16:26 | 50.07843 | 8.74839 | 2613 ft | 156 kts | 251° |
| 2026-05-06 16:26 | 50.07468 | 8.73254 | 2395 ft | 157 kts | 250° |
| 2026-05-06 16:26 | 50.07091 | 8.71665 | 2184 ft | 160 kts | 252° |
| 2026-05-06 16:27 | 50.06714 | 8.70074 | 1950 ft | 154 kts | 251° |
| 2026-05-06 16:27 | 50.06353 | 8.68541 | 1758 ft | 146 kts | 252° |
| 2026-05-06 16:27 | 50.06014 | 8.67113 | 1577 ft | 134 kts | 254° |
| 2026-05-06 16:27 | 50.05688 | 8.65741 | 1395 ft | 134 kts | 253° |
| 2026-05-06 16:28 | 50.05370 | 8.64403 | 1201 ft | 131 kts | 255° |
| 2026-05-06 16:28 | 50.05056 | 8.63081 | 1017 ft | 133 kts | 252° |
| 2026-05-06 16:28 | 50.04738 | 8.61744 | 832 ft | 131 kts | 254° |
| 2026-05-06 16:28 | 50.04417 | 8.60392 | 648 ft | 135 kts | 253° |
| 2026-05-06 16:29 | 50.04093 | 8.59037 | 472 ft | 133 kts | 253° |
| 2026-05-06 16:29 | 50.03782 | 8.57719 | 362 ft | 118 kts | 250° |
| 2026-05-06 16:29 | 50.03552 | 8.56749 | 352 ft | 71 kts | 249° |
| 2026-05-06 16:29 | 50.03444 | 8.56265 | 355 ft | 30 kts | 261° |
| 2026-05-06 16:30 | 50.03447 | 8.55954 | 348 ft | 17 kts | 279° |
| 2026-05-06 16:30 | 50.03458 | 8.55856 | 345 ft | 7 kts | 279° |
| 2026-05-06 16:30 | 50.03472 | 8.55734 | 347 ft | 13 kts | 279° |
| 2026-05-06 16:30 | 50.03491 | 8.55560 | 346 ft | 20 kts | 278° |
| 2026-05-06 16:31 | 50.03464 | 8.55356 | 347 ft | 19 kts | 249° |
| 2026-05-06 16:31 | 50.03420 | 8.55168 | 352 ft | 18 kts | 250° |
| 2026-05-06 16:31 | 50.03376 | 8.54988 | 351 ft | 19 kts | 249° |
| 2026-05-06 16:31 | 50.03328 | 8.54784 | 337 ft | 21 kts | 250° |
| 2026-05-06 16:32 | 50.03278 | 8.54567 | 334 ft | 21 kts | 255° |
| 2026-05-06 16:32 | 50.03331 | 8.54460 | 336 ft | 9 kts | 353° |
| 2026-05-06 16:32 | 50.03386 | 8.54438 | 338 ft | 7 kts | 339° |
| 2026-05-06 16:32 | 50.03436 | 8.54408 | 350 ft | 8 kts | 339° |
| 2026-05-06 16:33 | 50.03541 | 8.54348 | 345 ft | 22 kts | 339° |
| 2026-05-06 16:33 | 50.03659 | 8.54344 | 351 ft | 15 kts | 52° |
| 2026-05-06 16:33 | 50.03700 | 8.54491 | 349 ft | 14 kts | 70° |
| 2026-05-06 16:34 | 50.03757 | 8.54727 | 352 ft | 10 kts | 69° |
| 2026-05-06 16:34 | 50.03779 | 8.54821 | 347 ft | 9 kts | 70° |
| 2026-05-06 16:34 | 50.03798 | 8.54901 | 355 ft | 6 kts | 69° |
| 2026-05-06 16:34 | 50.03806 | 8.54936 | 353 ft | 0 kts | 69° |
| 2026-05-06 16:36 | 50.03813 | 8.54964 | 353 ft | 11 kts | 69° |
| 2026-05-06 16:36 | 50.03859 | 8.55158 | 356 ft | 24 kts | 69° |
| 2026-05-06 16:37 | 50.03920 | 8.55412 | 351 ft | 25 kts | 70° |
| 2026-05-06 16:37 | 50.03980 | 8.55663 | 351 ft | 24 kts | 70° |
| 2026-05-06 16:37 | 50.04037 | 8.55902 | 352 ft | 23 kts | 70° |
| 2026-05-06 16:37 | 50.04090 | 8.56123 | 358 ft | 21 kts | 69° |
| 2026-05-06 16:38 | 50.04139 | 8.56329 | 353 ft | 19 kts | 69° |
| 2026-05-06 16:38 | 50.04184 | 8.56515 | 362 ft | 17 kts | 70° |
| 2026-05-06 16:38 | 50.04223 | 8.56682 | 359 ft | 15 kts | 70° |
| 2026-05-06 16:38 | 50.04274 | 8.56798 | 364 ft | 12 kts | 28° |
| 2026-05-06 16:39 | 50.04363 | 8.56832 | 363 ft | 19 kts | 10° |
| 2026-05-06 16:39 | 50.04531 | 8.56882 | 359 ft | 23 kts | 13° |
| 2026-05-06 16:39 | 50.04686 | 8.56956 | 357 ft | 23 kts | 24° |
| 2026-05-06 16:39 | 50.04814 | 8.57048 | 357 ft | 15 kts | 24° |
| 2026-05-06 16:40 | 50.04882 | 8.57102 | 360 ft | 8 kts | 40° |
| 2026-05-06 16:40 | 50.04889 | 8.57115 | 365 ft | 0 kts | 47° |
| 2026-05-06 16:40 | 50.04894 | 8.57137 | 360 ft | 2 kts | 95° |
| 2026-05-06 16:40 | 50.04883 | 8.57149 | 361 ft | 1 kts | 151° |